Dan L — WDG4449 — position and weather

sailwx.info

Track history (hours):
 
Tides and Currents Weather Stations Pressure Air Temp Water Temp Dewpoint Dewpoint Depression Visibility Wind Speed Wind Dir Waves Ship Positions

Dan L

Owner: Enterprise Marine Services, LLC, San Antonio, TX. More information available from US FCC via Universal Licensing System and Coast Guard Vessel Documentation Center.

Last reported at 2018-Feb-19 22:36 UTC. Time now 2018-Feb-23 10:42 UTC.
Position N 32°01' W 091°04'.

Length 34 m; draft 3 m.

Type: Tug. MMSI: 367536660.

Date/timePositionNaut miles runAvg speedWind from/ knotsBaromVisibWave heightAir tempDewpointWater temp
2018-Feb-19 22:36N 32°01' W 091°04'6 8.1
2018-Feb-19 21:53N 32°06' W 091°06'3 5.6
2018-Feb-19 21:25N 32°07' W 091°03'3 7.6
2018-Feb-19 21:00N 32°09' W 091°00'5 9.7
2018-Feb-19 20:30N 32°14' W 090°59'5 9.7
2018-Feb-19 20:00N 32°18' W 090°56'3 6.1
2018-Feb-19 19:30N 32°21' W 090°56'4 8.2
2018-Feb-19 19:00N 32°22' W 091°00'4 8.0
2018-Feb-19 18:30N 32°26' W 091°02'5 9.9
2018-Feb-19 18:00N 32°28' W 091°07'5 9.3
2018-Feb-19 17:30N 32°33' W 091°06'7 9.1
2018-Feb-19 16:45N 32°39' W 091°08'  
2018-Feb-15 20:33N 38°35' W 090°12'0 2.3
2018-Feb-15 20:24N 38°36' W 090°12'0 0.1
2018-Feb-15 19:24N 38°36' W 090°12'1 0.2
2018-Feb-15 15:53N 38°35' W 090°13'1 1.8
2018-Feb-15 15:29N 38°35' W 090°12'0 0.2
2018-Feb-15 14:53N 38°36' W 090°12'0 0.0
2018-Feb-15 14:29N 38°36' W 090°12'0 0.0
2018-Feb-15 13:59N 38°36' W 090°12'0 0.0
2018-Feb-15 13:29N 38°36' W 090°12'0 0.0
2018-Feb-15 12:56N 38°36' W 090°12'0 0.0
2018-Feb-15 12:26N 38°36' W 090°12'0 0.0
2018-Feb-15 09:02N 38°36' W 090°12'0 0.0
2018-Feb-15 08:56N 38°36' W 090°12'0 0.0
2018-Feb-14 21:04N 38°36' W 090°12'0 1.2
2018-Feb-14 20:53N 38°36' W 090°12'0 0.3
2018-Feb-14 20:15N 38°36' W 090°12'0 0.0
2018-Feb-14 08:20N 38°36' W 090°12'0 0.4
2018-Feb-14 07:36N 38°36' W 090°12'0 1.5
2018-Feb-14 07:26N 38°36' W 090°12'0 0.0
2018-Feb-14 07:00N 38°36' W 090°12'0 0.0
2018-Feb-14 06:30N 38°36' W 090°12'0 0.0
2018-Feb-14 05:59N 38°36' W 090°12'0 0.0
2018-Feb-14 05:29N 38°36' W 090°12'0 0.0
2018-Feb-14 05:00N 38°36' W 090°12'0 0.0
2018-Feb-14 04:30N 38°36' W 090°12'0 0.0
2018-Feb-14 03:59N 38°36' W 090°12'0 0.0
2018-Feb-14 03:27N 38°36' W 090°12'0 0.0
2018-Feb-14 02:51N 38°36' W 090°12'0 0.0
2018-Feb-14 02:30N 38°36' W 090°12'0 0.0
2018-Feb-14 01:59N 38°36' W 090°12'0 0.0
2018-Feb-14 01:20N 38°36' W 090°12'0 0.0
2018-Feb-13 22:40N 38°36' W 090°12'0 0.8
2018-Feb-13 22:30N 38°36' W 090°12'0 0.1
2018-Feb-13 20:17N 38°36' W 090°12'0 0.0
2018-Feb-13 16:47N 38°36' W 090°12'0 0.0
2018-Feb-13 16:22N 38°36' W 090°12'0 0.0
2018-Feb-13 15:55N 38°36' W 090°12'0 0.0
2018-Feb-13 15:29N 38°36' W 090°12'0 0.0
2018-Feb-13 14:59N 38°36' W 090°12'0 0.0
2018-Feb-13 14:30N 38°36' W 090°12'0 0.0
2018-Feb-13 14:00N 38°36' W 090°12'0 0.0
2018-Feb-13 13:30N 38°36' W 090°12'0 0.0
2018-Feb-13 12:59N 38°36' W 090°12'0 0.0
2018-Feb-13 12:25N 38°36' W 090°12'0 0.0
2018-Feb-13 10:54N 38°36' W 090°12'0 0.2
2018-Feb-13 10:29N 38°36' W 090°12'0 0.4
2018-Feb-13 09:56N 38°35' W 090°12'0 0.0
2018-Feb-13 09:28N 38°35' W 090°12'  
Track history (hours):
 
Tides and Currents Weather Stations Pressure Air Temp Water Temp Dewpoint Dewpoint Depression Visibility Wind Speed Wind Dir Waves Ship Positions

Dan L

Owner: Enterprise Marine Services, LLC, San Antonio, TX. More information available from US FCC via Universal Licensing System and Coast Guard Vessel Documentation Center.

Last reported at 2018-Feb-19 22:36 UTC. Time now 2018-Feb-23 10:42 UTC.
Position N 32°01' W 091°04'.

Length 34 m; draft 3 m.

Type: Tug. MMSI: 367536660.

Date/timePositionNaut miles runAvg speedWind from/ knotsBaromVisibWave heightAir tempDewpointWater temp
2018-Feb-19 22:36N 32°01' W 091°04'6 8.1
2018-Feb-19 21:53N 32°06' W 091°06'3 5.6
2018-Feb-19 21:25N 32°07' W 091°03'3 7.6
2018-Feb-19 21:00N 32°09' W 091°00'5 9.7
2018-Feb-19 20:30N 32°14' W 090°59'5 9.7
2018-Feb-19 20:00N 32°18' W 090°56'3 6.1
2018-Feb-19 19:30N 32°21' W 090°56'4 8.2
2018-Feb-19 19:00N 32°22' W 091°00'4 8.0
2018-Feb-19 18:30N 32°26' W 091°02'5 9.9
2018-Feb-19 18:00N 32°28' W 091°07'5 9.3
2018-Feb-19 17:30N 32°33' W 091°06'7 9.1
2018-Feb-19 16:45N 32°39' W 091°08'  
2018-Feb-15 20:33N 38°35' W 090°12'0 2.3
2018-Feb-15 20:24N 38°36' W 090°12'0 0.1
2018-Feb-15 19:24N 38°36' W 090°12'1 0.2
2018-Feb-15 15:53N 38°35' W 090°13'1 1.8
2018-Feb-15 15:29N 38°35' W 090°12'0 0.2
2018-Feb-15 14:53N 38°36' W 090°12'0 0.0
2018-Feb-15 14:29N 38°36' W 090°12'0 0.0
2018-Feb-15 13:59N 38°36' W 090°12'0 0.0
2018-Feb-15 13:29N 38°36' W 090°12'0 0.0
2018-Feb-15 12:56N 38°36' W 090°12'0 0.0
2018-Feb-15 12:26N 38°36' W 090°12'0 0.0
2018-Feb-15 09:02N 38°36' W 090°12'0 0.0
2018-Feb-15 08:56N 38°36' W 090°12'0 0.0
2018-Feb-14 21:04N 38°36' W 090°12'0 1.2
2018-Feb-14 20:53N 38°36' W 090°12'0 0.3
2018-Feb-14 20:15N 38°36' W 090°12'0 0.0
2018-Feb-14 08:20N 38°36' W 090°12'0 0.4
2018-Feb-14 07:36N 38°36' W 090°12'0 1.5
2018-Feb-14 07:26N 38°36' W 090°12'0 0.0
2018-Feb-14 07:00N 38°36' W 090°12'0 0.0
2018-Feb-14 06:30N 38°36' W 090°12'0 0.0
2018-Feb-14 05:59N 38°36' W 090°12'0 0.0
2018-Feb-14 05:29N 38°36' W 090°12'0 0.0
2018-Feb-14 05:00N 38°36' W 090°12'0 0.0
2018-Feb-14 04:30N 38°36' W 090°12'0 0.0
2018-Feb-14 03:59N 38°36' W 090°12'0 0.0
2018-Feb-14 03:27N 38°36' W 090°12'0 0.0
2018-Feb-14 02:51N 38°36' W 090°12'0 0.0
2018-Feb-14 02:30N 38°36' W 090°12'0 0.0
2018-Feb-14 01:59N 38°36' W 090°12'0 0.0
2018-Feb-14 01:20N 38°36' W 090°12'0 0.0
2018-Feb-13 22:40N 38°36' W 090°12'0 0.8
2018-Feb-13 22:30N 38°36' W 090°12'0 0.1
2018-Feb-13 20:17N 38°36' W 090°12'0 0.0
2018-Feb-13 16:47N 38°36' W 090°12'0 0.0
2018-Feb-13 16:22N 38°36' W 090°12'0 0.0
2018-Feb-13 15:55N 38°36' W 090°12'0 0.0
2018-Feb-13 15:29N 38°36' W 090°12'0 0.0
2018-Feb-13 14:59N 38°36' W 090°12'0 0.0
2018-Feb-13 14:30N 38°36' W 090°12'0 0.0
2018-Feb-13 14:00N 38°36' W 090°12'0 0.0
2018-Feb-13 13:30N 38°36' W 090°12'0 0.0
2018-Feb-13 12:59N 38°36' W 090°12'0 0.0
2018-Feb-13 12:25N 38°36' W 090°12'0 0.0
2018-Feb-13 10:54N 38°36' W 090°12'0 0.2
2018-Feb-13 10:29N 38°36' W 090°12'0 0.4
2018-Feb-13 09:56N 38°35' W 090°12'0 0.0
2018-Feb-13 09:28N 38°35' W 090°12'  

Dump ship's entire track history